Time;durP1;ratioP1;P1;durP2;ratioP2;P2;SDS_P1;SDS_P2;PMS_P1;PMS_P2;Temp;Humidity;BMP_temperature;BMP_pressure;BME280_temperature;BME280_humidity;BME280_pressure;Samples;Min_cycle;Max_cycle;Signal;HPM_P1;HPM_P2
2023/05/16 00:00:08;;;;;;;16.15;2.25;;;8.60;99.90;;;;;;4996938;28;20541;-68
2023/05/16 00:02:36;;;;;;;19.17;2.35;;;8.60;99.90;;;;;;4997439;28;20344;-67
2023/05/16 00:05:03;;;;;;;17.38;2.33;;;8.60;99.90;;;;;;4996852;28;20107;-68
2023/05/16 00:07:29;;;;;;;16.55;2.00;;;8.50;99.90;;;;;;4996740;28;20050;-68
2023/05/16 00:09:55;;;;;;;11.50;1.33;;;8.50;99.90;;;;;;4996964;28;20144;-67
2023/05/16 00:12:21;;;;;;;19.20;1.90;;;8.50;99.90;;;;;;4996535;28;20137;-72
2023/05/16 00:14:49;;;;;;;16.52;2.13;;;8.50;99.90;;;;;;4996685;28;20073;-68
2023/05/16 00:17:16;;;;;;;13.95;1.67;;;8.50;99.90;;;;;;4996568;28;20057;-68
2023/05/16 00:19:43;;;;;;;;;;;8.50;99.90;;;;;;4997467;28;20050;-68
2023/05/16 00:22:10;;;;;;;19.77;2.08;;;8.50;99.90;;;;;;4996367;28;19929;-68
2023/05/16 00:24:36;;;;;;;20.23;1.90;;;8.40;99.90;;;;;;4996441;28;20046;-67
2023/05/16 00:27:02;;;;;;;12.77;1.38;;;8.40;99.90;;;;;;4996960;28;20057;-68
2023/05/16 00:29:30;;;;;;;19.63;1.92;;;8.40;99.90;;;;;;4996810;28;20054;-68
2023/05/16 00:31:56;;;;;;;21.35;2.25;;;8.40;99.90;;;;;;4978998;28;20046;-69
2023/05/16 00:34:22;;;;;;;15.05;2.15;;;8.40;99.90;;;;;;4996328;28;20042;-68
2023/05/16 00:36:49;;;;;;;19.20;1.98;;;8.40;99.90;;;;;;4963020;28;20050;-69
2023/05/16 00:39:15;;;;;;;18.15;2.05;;;8.30;99.90;;;;;;4978776;28;20494;-68
2023/05/16 00:41:41;;;;;;;16.30;1.45;;;8.20;99.90;;;;;;4996149;28;20133;-68
2023/05/16 00:44:07;;;;;;;19.10;1.63;;;8.20;99.90;;;;;;4996932;28;20129;-70
2023/05/16 00:46:34;;;;;;;21.77;2.10;;;8.10;99.90;;;;;;4996164;28;20383;-69
2023/05/16 00:49:00;;;;;;;;;;;8.10;99.90;;;;;;4996531;28;20085;-67
2023/05/16 00:51:26;;;;;;;13.33;1.80;;;8.20;99.90;;;;;;4978955;28;19971;-70
2023/05/16 00:53:53;;;;;;;18.08;1.65;;;8.10;99.90;;;;;;4962711;28;20414;-68
2023/05/16 00:56:20;;;;;;;17.02;1.60;;;8.10;99.90;;;;;;4996571;28;20386;-68
2023/05/16 00:58:46;;;;;;;;;;;8.10;99.90;;;;;;4978270;28;20128;-67
2023/05/16 01:01:13;;;;;;;16.63;2.05;;;8.00;99.90;;;;;;4995727;28;19922;-68
2023/05/16 01:03:39;;;;;;;15.30;1.25;;;8.00;99.90;;;;;;4962016;28;20046;-68
2023/05/16 01:06:05;;;;;;;14.18;2.15;;;7.90;99.90;;;;;;4978570;28;20046;-68
2023/05/16 01:08:31;;;;;;;12.43;1.40;;;7.90;99.90;;;;;;4978208;28;20065;-69
2023/05/16 01:11:24;;;;;;;19.65;2.17;;;7.90;99.90;;;;;;4978360;28;20058;-69
2023/05/16 01:14:28;;;;;;;18.60;1.77;;;7.90;99.90;;;;;;4995663;28;20047;-69
2023/05/16 01:17:14;;;;;;;15.82;1.58;;;7.90;99.90;;;;;;4980259;28;20482;-69
2023/05/16 01:19:51;;;;;;;18.83;2.00;;;7.90;99.90;;;;;;4995633;28;20042;-67
2023/05/16 01:22:37;;;;;;;22.73;2.28;;;7.90;99.90;;;;;;4995768;28;20065;-68
2023/05/16 01:25:21;;;;;;;17.37;1.90;;;7.90;99.90;;;;;;4978952;28;20092;-68
2023/05/16 01:27:47;;;;;;;24.98;1.90;;;7.90;99.90;;;;;;4963081;28;20348;-68
2023/05/16 01:30:16;;;;;;;16.25;2.50;;;7.90;99.90;;;;;;4978667;28;20066;-69
2023/05/16 01:32:41;;;;;;;26.17;2.47;;;7.90;99.90;;;;;;4995742;28;20093;-68
2023/05/16 01:35:10;;;;;;;19.65;2.70;;;7.90;99.90;;;;;;4995617;28;20046;-68
2023/05/16 01:37:40;;;;;;;17.15;1.58;;;7.90;99.90;;;;;;4995831;28;20054;-69
2023/05/16 01:40:15;;;;;;;18.23;1.50;;;7.90;99.90;;;;;;4996106;28;20085;-67
2023/05/16 01:42:45;;;;;;;23.48;3.22;;;7.90;99.90;;;;;;4996628;28;20039;-68
2023/05/16 01:45:19;;;;;;;17.92;1.75;;;7.80;99.90;;;;;;4995781;28;20054;-69
2023/05/16 01:48:04;;;;;;;18.83;1.75;;;7.80;99.90;;;;;;4996835;28;20387;-67
2023/05/16 01:50:35;;;;;;;12.82;1.83;;;7.70;99.90;;;;;;4978861;28;20057;-69
2023/05/16 01:53:13;;;;;;;19.77;2.08;;;7.60;99.90;;;;;;4996059;28;20042;-67
2023/05/16 01:55:48;;;;;;;17.85;1.90;;;7.60;99.90;;;;;;4995739;28;20462;-68
2023/05/16 01:58:16;;;;;;;15.73;1.48;;;7.60;99.90;;;;;;4996863;28;20046;-69
2023/05/16 02:00:43;;;;;;;17.77;1.75;;;7.50;99.90;;;;;;4978680;28;20052;-69
2023/05/16 02:03:09;;;;;;;20.52;2.03;;;7.40;99.90;;;;;;4979083;28;20043;-70
2023/05/16 02:05:35;;;;;;;19.15;1.58;;;7.40;99.90;;;;;;4978163;28;20073;-75
2023/05/16 02:08:01;;;;;;;20.08;1.77;;;7.30;99.90;;;;;;4995712;28;20050;-68
2023/05/16 02:10:27;;;;;;;14.90;1.20;;;7.30;99.90;;;;;;4995556;28;20064;-68
2023/05/16 02:12:53;;;;;;;12.43;1.75;;;7.20;99.90;;;;;;4962271;28;20445;-69
2023/05/16 02:15:18;;;;;;;13.18;1.40;;;7.20;99.90;;;;;;4978729;28;20046;-67
2023/05/16 02:17:46;;;;;;;12.98;1.65;;;7.20;99.90;;;;;;4996051;28;20391;-67
2023/05/16 02:20:12;;;;;;;18.88;1.55;;;7.10;99.90;;;;;;4977870;28;20104;-69
2023/05/16 02:22:38;;;;;;;18.97;1.60;;;7.10;99.90;;;;;;4962136;28;20085;-69
2023/05/16 02:25:05;;;;;;;18.73;1.20;;;7.10;99.90;;;;;;4995652;28;20050;-68
2023/05/16 02:27:30;;;;;;;12.95;1.10;;;7.00;99.90;;;;;;4995148;28;20053;-68
2023/05/16 02:29:57;;;;;;;20.95;1.85;;;7.00;99.90;;;;;;4962618;28;20053;-67
2023/05/16 02:32:22;;;;;;;10.32;1.45;;;7.00;99.90;;;;;;4977682;28;20050;-67
2023/05/16 02:34:48;;;;;;;11.52;1.27;;;7.00;99.90;;;;;;4977567;28;20129;-68
2023/05/16 02:37:14;;;;;;;15.55;1.73;;;6.90;99.90;;;;;;4994525;28;20038;-68
2023/05/16 02:39:41;;;;;;;15.17;1.10;;;6.90;99.90;;;;;;4977768;28;20055;-67
2023/05/16 02:42:07;;;;;;;17.67;1.67;;;6.90;99.90;;;;;;4994631;28;20285;-68
2023/05/16 02:44:32;;;;;;;11.23;1.33;;;6.80;99.90;;;;;;4994254;28;20054;-68
2023/05/16 02:46:58;;;;;;;17.85;1.48;;;6.80;99.90;;;;;;4960773;28;20054;-68
2023/05/16 02:49:24;;;;;;;12.80;1.42;;;6.80;99.90;;;;;;4995176;28;20046;-68
2023/05/16 02:51:50;;;;;;;10.77;0.93;;;6.80;99.90;;;;;;4994455;28;20502;-69
2023/05/16 02:54:16;;;;;;;15.27;1.40;;;6.80;99.90;;;;;;4978472;28;20054;-68
2023/05/16 02:56:43;;;;;;;16.25;1.80;;;6.80;99.90;;;;;;4996190;28;20050;-68
2023/05/16 02:59:10;;;;;;;5.75;0.85;;;6.80;99.90;;;;;;4978250;28;20509;-68
2023/05/16 03:01:36;;;;;;;11.10;1.10;;;6.70;99.90;;;;;;4994351;28;20049;-69
2023/05/16 03:04:02;;;;;;;19.45;1.92;;;6.70;99.90;;;;;;4994096;28;20061;-69
2023/05/16 03:06:29;;;;;;;14.55;2.20;;;6.70;99.90;;;;;;4994130;28;20054;-69
2023/05/16 03:08:55;;;;;;;12.80;1.63;;;6.60;99.90;;;;;;4960592;28;20054;-69
2023/05/16 03:11:21;;;;;;;11.68;1.52;;;6.60;99.90;;;;;;4994134;28;20054;-68
2023/05/16 03:13:47;;;;;;;13.85;1.75;;;6.70;99.90;;;;;;4993784;28;20494;-68
2023/05/16 03:16:14;;;;;;;8.80;1.10;;;6.60;99.90;;;;;;4994334;28;20046;-69
2023/05/16 03:18:40;;;;;;;15.13;1.17;;;6.60;99.90;;;;;;4960963;28;20482;-68
2023/05/16 03:21:06;;;;;;;13.50;1.33;;;6.60;99.90;;;;;;4978528;28;20061;-68
2023/05/16 03:23:32;;;;;;;16.33;1.20;;;6.60;99.90;;;;;;4981231;28;20051;-69
2023/05/16 03:25:58;;;;;;;18.27;1.23;;;6.60;99.90;;;;;;4965976;28;20065;-68
2023/05/16 03:28:24;;;;;;;17.20;1.60;;;6.50;99.90;;;;;;4964873;28;20042;-69
2023/05/16 03:30:49;;;;;;;13.75;1.95;;;6.50;99.90;;;;;;4981405;28;20054;-69
2023/05/16 03:33:15;;;;;;;14.70;1.65;;;6.50;99.90;;;;;;4998297;28;20035;-69
2023/05/16 03:35:42;;;;;;;21.15;1.60;;;6.50;99.90;;;;;;4998043;28;20054;-68
2023/05/16 03:38:08;;;;;;;14.40;1.75;;;6.50;99.90;;;;;;4997673;28;20038;-68
2023/05/16 03:40:34;;;;;;;13.85;1.40;;;6.50;99.90;;;;;;4998449;28;20048;-68
2023/05/16 03:43:00;;;;;;;22.90;1.40;;;6.50;99.90;;;;;;4980555;28;20050;-68
2023/05/16 03:45:26;;;;;;;16.23;2.42;;;6.50;99.90;;;;;;4998236;28;20054;-68
2023/05/16 03:47:52;;;;;;;21.17;2.00;;;6.60;99.90;;;;;;4999008;28;20044;-68
2023/05/16 03:50:17;;;;;;;11.73;1.55;;;6.60;99.90;;;;;;4998659;28;20459;-68
2023/05/16 03:52:43;;;;;;;13.15;1.70;;;6.50;99.90;;;;;;4998273;28;20474;-69
2023/05/16 03:55:09;;;;;;;13.10;1.92;;;6.60;99.90;;;;;;4997718;28;20081;-68
2023/05/16 03:57:37;;;;;;;17.23;1.85;;;6.60;99.90;;;;;;4964658;28;20048;-67
2023/05/16 04:00:06;;;;;;;15.38;1.55;;;6.60;99.90;;;;;;4998091;28;20046;-68
2023/05/16 04:02:32;;;;;;;15.15;1.77;;;6.60;99.90;;;;;;4981228;28;20043;-69
2023/05/16 04:04:58;;;;;;;14.77;1.33;;;6.60;99.90;;;;;;4998468;28;20046;-69
2023/05/16 04:07:24;;;;;;;20.42;1.60;;;6.60;99.90;;;;;;4981909;28;20149;-70
2023/05/16 04:09:51;;;;;;;10.20;1.90;;;6.60;99.90;;;;;;4999056;28;20074;-74
2023/05/16 04:12:16;;;;;;;14.77;1.65;;;6.70;99.90;;;;;;4981189;28;20050;-68
2023/05/16 04:14:43;;;;;;;16.42;1.55;;;6.60;99.90;;;;;;4981043;28;20514;-69
2023/05/16 04:17:09;;;;;;;16.75;1.98;;;6.60;99.90;;;;;;4980698;28;20042;-66
2023/05/16 04:19:35;;;;;;;18.33;2.20;;;6.70;99.90;;;;;;4997815;28;20438;-69
2023/05/16 04:22:01;;;;;;;17.35;1.73;;;6.70;99.90;;;;;;4998257;28;20042;-68
2023/05/16 04:24:27;;;;;;;18.00;1.63;;;6.70;99.90;;;;;;4981067;28;20052;-68
2023/05/16 04:26:54;;;;;;;21.70;2.47;;;6.80;99.90;;;;;;4949732;28;20050;-68
2023/05/16 04:29:20;;;;;;;14.65;1.27;;;6.80;99.90;;;;;;4980596;28;20054;-69
2023/05/16 04:31:47;;;;;;;13.23;1.50;;;6.90;99.90;;;;;;4979964;28;20653;-68
2023/05/16 04:34:14;;;;;;;15.18;2.00;;;6.90;99.90;;;;;;4997482;28;20090;-68
2023/05/16 04:36:40;;;;;;;14.82;1.80;;;7.00;99.90;;;;;;4980879;28;20054;-68
2023/05/16 04:39:06;;;;;;;11.87;1.73;;;7.00;99.90;;;;;;4997548;28;20046;-68
2023/05/16 04:41:33;;;;;;;14.30;2.00;;;7.10;99.90;;;;;;4979713;28;20050;-69
2023/05/16 04:44:05;;;;;;;12.82;1.27;;;7.20;99.90;;;;;;4997227;28;20045;-70
2023/05/16 04:46:31;;;;;;;13.98;1.50;;;7.30;99.90;;;;;;4979370;28;20052;-69
2023/05/16 04:48:56;;;;;;;10.57;1.27;;;7.40;99.90;;;;;;4963678;28;20054;-69
2023/05/16 04:51:22;;;;;;;17.15;2.15;;;7.40;99.90;;;;;;4979354;28;20053;-69
2023/05/16 04:53:48;;;;;;;19.95;2.25;;;7.40;99.90;;;;;;4996746;28;20049;-68
2023/05/16 04:56:14;;;;;;;13.57;1.30;;;7.50;99.90;;;;;;4996273;28;20133;-69
2023/05/16 04:58:40;;;;;;;10.35;1.33;;;7.60;99.90;;;;;;4978862;28;20138;-67
2023/05/16 05:01:05;;;;;;;12.23;1.60;;;7.60;99.90;;;;;;4979035;28;20125;-68
2023/05/16 05:03:31;;;;;;;15.52;1.85;;;7.70;99.90;;;;;;4978658;28;20383;-68
2023/05/16 05:05:57;;;;;;;14.50;1.50;;;7.70;99.90;;;;;;4996137;28;20132;-74
2023/05/16 05:08:23;;;;;;;15.82;1.77;;;7.80;99.90;;;;;;4978261;28;20422;-67
2023/05/16 05:10:48;;;;;;;15.02;1.50;;;7.90;99.90;;;;;;4997753;28;20046;-70
2023/05/16 05:13:14;;;;;;;12.70;1.60;;;7.90;99.90;;;;;;4979802;28;20046;-68
2023/05/16 05:15:40;;;;;;;14.63;1.33;;;8.00;99.90;;;;;;4997676;28;20043;-69
2023/05/16 05:18:06;;;;;;;11.98;1.80;;;8.00;99.90;;;;;;4979195;28;20136;-68
2023/05/16 05:20:31;;;;;;;17.83;1.17;;;8.10;99.90;;;;;;4996352;28;20072;-68
2023/05/16 05:22:57;;;;;;;13.20;2.70;;;8.10;99.90;;;;;;4963521;28;20050;-67
2023/05/16 05:25:23;;;;;;;10.15;1.17;;;8.20;99.90;;;;;;4979231;28;20046;-71
2023/05/16 05:27:48;;;;;;;11.98;2.05;;;8.30;99.90;;;;;;4962105;28;20074;-68
2023/05/16 05:30:15;;;;;;;9.98;1.02;;;8.40;99.90;;;;;;4962345;28;20050;-71
2023/05/16 05:32:40;;;;;;;12.25;2.00;;;8.40;99.90;;;;;;4996173;28;20042;-68
2023/05/16 05:35:06;;;;;;;10.20;1.00;;;8.50;99.90;;;;;;4978570;28;20056;-70
2023/05/16 05:37:32;;;;;;;8.23;1.20;;;8.60;99.90;;;;;;4978095;28;20089;-69
2023/05/16 05:39:58;;;;;;;11.57;1.02;;;8.70;99.90;;;;;;4978034;28;20363;-69
2023/05/16 05:42:24;;;;;;;14.30;1.10;;;8.70;99.90;;;;;;4977523;28;20046;-69
2023/05/16 05:44:50;;;;;;;10.82;1.00;;;8.80;99.90;;;;;;4977376;28;20053;-68
2023/05/16 05:47:16;;;;;;;11.05;1.30;;;8.80;99.90;;;;;;4961772;28;20054;-68
2023/05/16 05:49:42;;;;;;;9.75;1.00;;;8.80;99.90;;;;;;4977736;28;20050;-68
2023/05/16 05:52:08;;;;;;;9.70;0.98;;;8.90;99.90;;;;;;4994983;28;20042;-68
2023/05/16 05:54:33;;;;;;;15.05;1.13;;;9.00;99.90;;;;;;4978644;28;20360;-69
2023/05/16 05:56:59;;;;;;;13.63;1.65;;;9.00;99.90;;;;;;4978310;28;20050;-67
2023/05/16 05:59:26;;;;;;;16.17;1.45;;;9.10;99.90;;;;;;4977335;28;20049;-70
2023/05/16 06:01:52;;;;;;;11.40;1.10;;;9.20;99.90;;;;;;4977395;28;20046;-68
2023/05/16 06:04:18;;;;;;;13.60;1.50;;;9.20;99.90;;;;;;4977643;28;20453;-68
2023/05/16 06:06:44;;;;;;;9.23;0.77;;;9.30;99.90;;;;;;4994430;28;20050;-69
2023/05/16 06:09:10;;;;;;;8.93;1.02;;;9.30;99.90;;;;;;4976809;28;20141;-69
2023/05/16 06:11:37;;;;;;;14.80;1.05;;;9.40;99.90;;;;;;4994849;28;20053;-68
2023/05/16 06:14:03;;;;;;;15.27;1.27;;;9.50;99.90;;;;;;4994371;28;20047;-68
2023/05/16 06:16:28;;;;;;;16.80;1.63;;;9.50;99.90;;;;;;4994589;28;20089;-68
2023/05/16 06:18:54;;;;;;;12.20;1.20;;;9.60;99.90;;;;;;4994328;28;20050;-69
2023/05/16 06:21:20;;;;;;;10.95;0.93;;;9.60;99.90;;;;;;4960971;28;20413;-68
2023/05/16 06:23:46;;;;;;;12.70;1.55;;;9.60;99.90;;;;;;4977112;28;20050;-69
2023/05/16 06:26:12;;;;;;;12.50;1.15;;;9.70;99.90;;;;;;4976891;28;20050;-69
2023/05/16 06:28:38;;;;;;;14.82;1.17;;;9.70;99.90;;;;;;4994579;28;20034;-67
2023/05/16 06:31:03;;;;;;;16.13;0.93;;;9.80;99.90;;;;;;4994231;28;20157;-68
2023/05/16 06:33:29;;;;;;;13.90;1.50;;;9.80;99.90;;;;;;4960980;28;20053;-68
2023/05/16 06:35:55;;;;;;;7.53;0.80;;;9.90;99.90;;;;;;4994733;28;20053;-68
2023/05/16 06:38:20;;;;;;;10.82;0.90;;;9.90;99.90;;;;;;4976792;28;20042;-68
2023/05/16 06:40:46;;;;;;;10.38;1.10;;;9.90;99.90;;;;;;4977160;28;20054;-68
2023/05/16 06:43:12;;;;;;;11.77;0.88;;;10.10;99.90;;;;;;4994602;28;20378;-68
2023/05/16 06:45:37;;;;;;;12.15;1.15;;;10.20;99.90;;;;;;4994019;28;20057;-67
2023/05/16 06:48:06;;;;;;;19.83;2.13;;;10.20;99.90;;;;;;4976988;28;20050;-68
2023/05/16 06:50:32;;;;;;;10.65;1.10;;;10.30;99.90;;;;;;4960713;28;20054;-69
2023/05/16 06:52:57;;;;;;;10.95;0.80;;;10.30;99.90;;;;;;4960742;28;20061;-68
2023/05/16 06:55:23;;;;;;;9.82;1.17;;;10.30;99.90;;;;;;4995245;28;20081;-68
2023/05/16 06:57:49;;;;;;;9.70;0.85;;;10.40;99.90;;;;;;4981521;28;20046;-71
2023/05/16 07:00:15;;;;;;;11.70;1.05;;;10.40;99.90;;;;;;4981129;28;20488;-69
2023/05/16 07:02:41;;;;;;;8.93;0.85;;;10.50;99.90;;;;;;4997940;28;20054;-69
2023/05/16 07:05:07;;;;;;;9.57;0.68;;;10.60;99.90;;;;;;4998193;28;20068;-69
2023/05/16 07:07:34;;;;;;;8.57;0.80;;;10.80;99.90;;;;;;4998536;28;20082;-69
2023/05/16 07:10:00;;;;;;;6.60;0.73;;;11.00;99.90;;;;;;4980099;28;20487;-68
2023/05/16 07:12:25;;;;;;;9.60;0.70;;;11.10;99.90;;;;;;4980334;28;20053;-71
2023/05/16 07:14:51;;;;;;;8.88;1.45;;;11.10;99.90;;;;;;4980355;28;20553;-68
2023/05/16 07:17:17;;;;;;;7.00;0.55;;;11.30;99.90;;;;;;4964273;28;20046;-69
2023/05/16 07:19:43;;;;;;;9.55;0.60;;;11.30;99.90;;;;;;4998081;28;20104;-68
2023/05/16 07:22:09;;;;;;;10.98;0.80;;;11.40;99.90;;;;;;4964798;28;20478;-69
2023/05/16 07:24:35;;;;;;;8.18;0.70;;;11.30;99.90;;;;;;4980040;28;20046;-68
2023/05/16 07:27:01;;;;;;;9.98;0.60;;;11.50;99.90;;;;;;4980128;28;20043;-68
2023/05/16 07:29:27;;;;;;;7.13;0.60;;;11.50;99.90;;;;;;4964522;28;20050;-68
2023/05/16 07:31:52;;;;;;;10.25;0.85;;;11.30;99.90;;;;;;4980536;28;20046;-67
2023/05/16 07:34:19;;;;;;;10.70;0.90;;;11.00;99.90;;;;;;4980175;28;20078;-68
2023/05/16 07:36:44;;;;;;;7.18;0.65;;;10.70;99.90;;;;;;4997844;28;20034;-68
2023/05/16 07:39:10;;;;;;;5.43;0.57;;;10.20;99.90;;;;;;4980116;28;20046;-69
2023/05/16 07:41:36;;;;;;;6.63;0.60;;;9.80;99.90;;;;;;4997673;28;20050;-67
2023/05/16 07:44:01;;;;;;;12.18;0.95;;;9.80;99.90;;;;;;4997149;28;20042;-68
2023/05/16 07:46:27;;;;;;;12.55;0.73;;;9.90;99.90;;;;;;4997163;28;20088;-69
2023/05/16 07:48:53;;;;;;;9.45;0.90;;;10.20;99.90;;;;;;4979887;28;20140;-68
2023/05/16 07:51:18;;;;;;;11.80;0.80;;;10.50;99.90;;;;;;4963525;28;20129;-69
2023/05/16 07:53:44;;;;;;;12.07;0.73;;;10.80;99.90;;;;;;4996975;28;20179;-70
2023/05/16 07:56:11;;;;;;;9.43;0.55;;;11.10;99.90;;;;;;4997181;28;20471;-71
2023/05/16 07:58:37;;;;;;;6.07;0.30;;;11.50;99.90;;;;;;4979651;28;20054;-69
2023/05/16 08:01:03;;;;;;;5.82;0.30;;;11.90;99.90;;;;;;4996846;28;20054;-67
2023/05/16 08:03:29;;;;;;;5.80;0.77;;;11.90;99.90;;;;;;4996739;28;20057;-68
2023/05/16 08:05:55;;;;;;;4.07;0.50;;;11.80;99.90;;;;;;4979488;28;20104;-68
2023/05/16 08:08:20;;;;;;;7.75;0.45;;;11.80;99.90;;;;;;4978925;28;20046;-69
2023/05/16 08:10:46;;;;;;;4.25;0.30;;;11.80;99.90;;;;;;4979029;28;20557;-69
2023/05/16 08:13:12;;;;;;;7.65;0.60;;;12.00;99.90;;;;;;4979932;28;20090;-69
2023/05/16 08:15:37;;;;;;;7.25;0.43;;;11.70;99.90;;;;;;4979309;28;20133;-70
2023/05/16 08:18:05;;;;;;;7.70;0.60;;;11.70;99.90;;;;;;4979512;28;20130;-69
2023/05/16 08:20:31;;;;;;;12.38;1.55;;;11.70;99.90;;;;;;4978989;28;20053;-69
2023/05/16 08:22:57;;;;;;;7.93;0.50;;;11.70;99.90;;;;;;4979246;28;20046;-68
2023/05/16 08:25:23;;;;;;;9.70;0.60;;;11.70;99.90;;;;;;4996580;28;20049;-71
2023/05/16 08:27:50;;;;;;;13.65;0.80;;;11.90;99.90;;;;;;4996534;28;20061;-69
2023/05/16 08:30:15;;;;;;;12.02;0.70;;;12.00;99.90;;;;;;4962830;28;20046;-70
2023/05/16 08:32:41;;;;;;;11.35;0.73;;;12.00;99.90;;;;;;4997130;28;20046;-69
2023/05/16 08:35:07;;;;;;;10.70;0.60;;;12.00;99.90;;;;;;4996329;28;20038;-69
2023/05/16 08:37:33;;;;;;;5.40;0.40;;;11.90;99.90;;;;;;4979777;28;20133;-71
2023/05/16 08:39:59;;;;;;;12.90;0.77;;;12.00;99.90;;;;;;4996266;28;20121;-71
2023/05/16 08:42:26;;;;;;;9.68;0.52;;;12.20;99.90;;;;;;4978717;28;20134;-69
2023/05/16 08:44:52;;;;;;;6.95;0.68;;;12.20;99.90;;;;;;4979023;28;20454;-69
2023/05/16 08:47:20;;;;;;;2.45;0.30;;;12.30;99.90;;;;;;4979160;28;20081;-69
2023/05/16 08:49:50;;;;;;;7.68;0.52;;;12.60;99.90;;;;;;4978833;28;20069;-68
2023/05/16 08:52:20;;;;;;;10.23;0.60;;;12.70;99.90;;;;;;4996603;28;20120;-68
2023/05/16 08:54:48;;;;;;;4.80;0.47;;;;;;;;;;4996632;28;20131;-69
2023/05/16 08:57:14;;;;;;;8.32;0.43;;;;;;;;;;4979071;28;20054;-69
2023/05/16 08:59:41;;;;;;;7.32;0.60;;;;;;;;;;4978337;28;20050;-70
2023/05/16 09:02:08;;;;;;;9.10;0.70;;;;;;;;;;4978556;28;20046;-69
2023/05/16 09:04:35;;;;;;;4.88;0.40;;;;;;;;;;4995747;28;20129;-70
2023/05/16 09:07:01;;;;;;;8.05;0.60;;;;;;;;;;4995973;28;20056;-68
2023/05/16 09:09:27;;;;;;;9.05;0.55;;;;;;;;;;4995201;28;20470;-69
2023/05/16 09:11:53;;;;;;;6.13;0.60;;;;;;;;;;4978919;28;20061;-69
2023/05/16 09:14:19;;;;;;;8.05;0.65;;;;;;;;;;4978336;28;20042;-68
2023/05/16 09:17:02;;;;;;;8.32;0.70;;;;;;;;;;4996048;28;20054;-68
2023/05/16 09:19:32;;;;;;;12.70;1.10;;;;;;;;;;4977786;28;20085;-68
2023/05/16 09:22:02;;;;;;;11.55;0.82;;;;;;;;;;4962257;28;20054;-69
2023/05/16 09:24:28;;;;;;;9.02;0.57;;;;;;;;;;4995020;28;20133;-69
2023/05/16 09:26:54;;;;;;;6.80;0.50;;;;;;;;;;4995421;28;20394;-69
2023/05/16 09:29:21;;;;;;;7.28;1.00;;;;;;;;;;4995018;28;20502;-69
2023/05/16 09:31:49;;;;;;;8.88;0.60;;;;;;;;;;4978426;28;20097;-69
2023/05/16 09:34:15;;;;;;;9.60;0.50;;;;;;;;;;4961571;28;20146;-69
2023/05/16 09:36:41;;;;;;;7.95;0.68;;;;;;;;;;4977685;28;20136;-69
2023/05/16 09:39:07;;;;;;;6.63;0.83;;;;;;;;;;4995665;28;20050;-69
2023/05/16 09:41:35;;;;;;;9.83;0.87;;;;;;;;;;4994656;28;20107;-70
2023/05/16 09:44:05;;;;;;;7.38;0.90;;;;;;;;;;4977693;28;20305;-69
2023/05/16 09:46:33;;;;;;;6.25;0.60;;;;;;;;;;4995014;28;20129;-69
2023/05/16 09:48:59;;;;;;;11.02;0.77;;;;;;;;;;4995504;28;20050;-69
2023/05/16 09:51:26;;;;;;;5.35;0.70;;;;;;;;;;4994921;28;20065;-69
2023/05/16 09:53:52;;;;;;;5.38;0.40;;;;;;;;;;4994866;28;20042;-69
2023/05/16 09:56:18;;;;;;;8.95;0.52;;;;;;;;;;4961536;28;20057;-69
2023/05/16 09:58:46;;;;;;;8.30;0.70;;;;;;;;;;4994839;28;20371;-68
2023/05/16 10:01:12;;;;;;;7.85;0.45;;;;;;;;;;4994684;28;20057;-70
2023/05/16 10:03:39;;;;;;;4.57;0.50;;;;;;;;;;4961151;28;20050;-69
2023/05/16 10:06:06;;;;;;;11.20;0.68;;;;;;;;;;4994618;28;20050;-69
2023/05/16 10:08:36;;;;;;;4.60;0.35;;;13.60;99.90;;;;;;4995128;28;20050;-69
2023/05/16 10:11:03;;;;;;;10.10;0.70;;;14.10;99.90;;;;;;4994998;28;20062;-69
2023/05/16 10:13:34;;;;;;;7.90;0.55;;;14.40;99.90;;;;;;4977332;28;20060;-70
2023/05/16 10:16:10;;;;;;;6.47;0.50;;;14.80;99.90;;;;;;4994758;28;20042;-70
2023/05/16 10:18:38;;;;;;;8.98;0.50;;;14.70;99.90;;;;;;4977342;28;20047;-74
2023/05/16 10:21:09;;;;;;;12.48;0.60;;;14.40;99.90;;;;;;4977263;28;20054;-69
2023/05/16 10:23:36;;;;;;;6.70;0.60;;;14.00;99.90;;;;;;4977904;28;20050;-68
2023/05/16 10:26:04;;;;;;;6.70;0.50;;;13.00;99.90;;;;;;4976801;28;20125;-69
2023/05/16 10:28:31;;;;;;;5.82;0.40;;;12.90;99.90;;;;;;4977065;28;20116;-70
2023/05/16 10:30:58;;;;;;;4.38;0.32;;;12.80;99.90;;;;;;4976510;28;20101;-68
2023/05/16 10:33:23;;;;;;;5.80;0.40;;;12.80;99.90;;;;;;4976984;28;20105;-68
2023/05/16 10:35:49;;;;;;;4.93;0.50;;;12.90;99.90;;;;;;4994684;28;20050;-68
2023/05/16 10:38:17;;;;;;;5.15;0.30;;;13.10;99.90;;;;;;4977051;28;20050;-70
2023/05/16 10:40:44;;;;;;;6.80;0.60;;;13.50;99.90;;;;;;4994121;28;20398;-69
2023/05/16 10:43:10;;;;;;;2.50;0.30;;;13.60;99.70;;;;;;4994558;28;20419;-71
2023/05/16 10:45:40;;;;;;;5.28;0.30;;;14.00;98.80;;;;;;4976722;28;20109;-69
2023/05/16 10:48:09;;;;;;;7.25;0.30;;;14.00;96.80;;;;;;4977378;28;20355;-69
2023/05/16 10:50:45;;;;;;;6.63;0.63;;;13.80;96.70;;;;;;4977553;28;20059;-69
2023/05/16 10:53:31;;;;;;;8.10;0.60;;;14.00;97.30;;;;;;4994541;28;20050;-69
2023/05/16 10:56:00;;;;;;;10.52;0.65;;;13.70;97.90;;;;;;4994902;28;20046;-69
2023/05/16 10:58:38;;;;;;;7.78;0.65;;;13.80;99.50;;;;;;4976788;28;20058;-68
2023/05/16 11:01:26;;;;;;;5.53;0.60;;;13.70;99.60;;;;;;4976893;28;20055;-69
2023/05/16 11:03:58;;;;;;;5.85;0.50;;;14.10;99.90;;;;;;4993786;28;20035;-73
2023/05/16 11:06:31;;;;;;;8.15;0.50;;;14.40;99.90;;;;;;4993940;28;20446;-69
2023/05/16 13:48:16;;;;;;;10.15;1.98;;;14.40;97.60;;;;;;5121693;27;1416729;-70
2023/05/16 13:50:42;;;;;;;5.88;1.33;;;14.00;98.20;;;;;;5097955;27;20043;-70
2023/05/16 13:53:08;;;;;;;9.65;1.80;;;14.10;98.90;;;;;;5115476;27;20054;-71
2023/05/16 13:55:34;;;;;;;10.90;2.05;;;14.30;98.50;;;;;;5151217;27;20047;-70
2023/05/16 13:58:00;;;;;;;10.35;2.08;;;14.40;97.80;;;;;;5115391;27;20043;-70
2023/05/16 14:00:25;;;;;;;7.35;1.60;;;14.00;97.50;;;;;;5151445;27;20054;-70
2023/05/16 14:02:51;;;;;;;8.18;2.03;;;14.00;98.60;;;;;;5132610;27;20471;-69
2023/05/16 14:05:17;;;;;;;7.40;1.67;;;14.00;98.30;;;;;;5132374;27;20055;-70
2023/05/16 14:07:43;;;;;;;7.65;1.75;;;13.90;97.90;;;;;;5115723;27;20043;-70
2023/05/16 14:10:09;;;;;;;6.38;1.58;;;14.10;97.90;;;;;;5114907;27;20402;-69
2023/05/16 14:12:36;;;;;;;8.82;1.65;;;14.20;98.20;;;;;;5151018;27;20119;-69
2023/05/16 14:15:01;;;;;;;7.43;2.08;;;14.30;98.10;;;;;;5150529;27;20043;-70
2023/05/16 14:17:27;;;;;;;5.38;1.70;;;14.10;97.10;;;;;;5131988;27;20180;-69
2023/05/16 14:19:53;;;;;;;9.52;1.90;;;14.30;97.60;;;;;;5150984;27;20043;-69
2023/05/16 14:22:19;;;;;;;7.57;2.10;;;14.20;97.50;;;;;;5150404;27;20516;-70
2023/05/16 14:24:45;;;;;;;6.77;1.80;;;14.20;97.60;;;;;;5115245;27;20051;-70
2023/05/16 14:27:11;;;;;;;10.02;2.15;;;14.10;98.00;;;;;;5150045;27;20361;-70
2023/05/16 14:29:36;;;;;;;8.77;1.67;;;14.40;98.00;;;;;;5132072;27;20043;-70
2023/05/16 14:32:02;;;;;;;7.32;1.85;;;14.10;98.00;;;;;;5114706;27;20123;-70
2023/05/16 14:34:29;;;;;;;8.63;1.80;;;14.00;98.30;;;;;;5150643;27;20043;-70
2023/05/16 14:36:54;;;;;;;10.40;1.65;;;13.90;98.30;;;;;;5132013;27;20042;-70
2023/05/16 14:39:20;;;;;;;10.77;1.75;;;13.70;98.80;;;;;;5149982;27;20108;-72
2023/05/16 14:41:46;;;;;;;9.40;1.80;;;13.80;99.30;;;;;;5132156;27;20483;-70
2023/05/16 14:44:12;;;;;;;9.48;1.90;;;13.90;99.20;;;;;;5149648;27;20391;-69
2023/05/16 14:46:38;;;;;;;9.80;1.90;;;13.90;99.60;;;;;;5149684;27;20072;-69
2023/05/16 14:49:03;;;;;;;10.85;2.30;;;13.90;99.50;;;;;;5101905;27;20055;-70
2023/05/16 14:51:31;;;;;;;10.73;3.05;;;13.90;99.90;;;;;;5084327;27;20430;-68
2023/05/16 14:53:56;;;;;;;11.93;2.65;;;13.50;98.70;;;;;;5117938;27;20047;-70
2023/05/16 14:56:22;;;;;;;9.18;2.92;;;13.20;99.00;;;;;;5135748;27;20039;-71
2023/05/16 14:58:48;;;;;;;10.80;2.40;;;13.50;99.40;;;;;;5117982;27;20138;-70
2023/05/16 15:01:15;;;;;;;11.88;2.70;;;13.70;99.60;;;;;;5117611;27;20203;-69
2023/05/16 15:03:41;;;;;;;11.10;3.15;;;14.00;99.80;;;;;;5117971;27;20108;-68
2023/05/16 15:06:06;;;;;;;13.50;2.85;;;13.90;99.30;;;;;;5135780;27;20047;-69
2023/05/16 15:08:33;;;;;;;11.35;3.03;;;14.00;99.60;;;;;;5136158;27;20047;-72
2023/05/16 15:10:59;;;;;;;;;;;14.00;99.10;;;;;;5118370;27;20076;-71
2023/05/16 15:13:25;;;;;;;6.50;2.37;;;13.90;98.50;;;;;;5117147;27;20006;-70
2023/05/16 15:15:51;;;;;;;9.60;2.30;;;13.70;97.90;;;;;;5117465;27;20615;-69
2023/05/16 15:18:17;;;;;;;10.55;2.70;;;13.60;97.60;;;;;;5117298;27;20043;-69
2023/05/16 15:20:42;;;;;;;8.82;2.30;;;13.60;98.30;;;;;;5135932;27;20085;-70
2023/05/16 15:23:08;;;;;;;8.98;2.10;;;13.50;98.30;;;;;;5117301;27;20476;-70
2023/05/16 15:25:34;;;;;;;8.93;1.70;;;13.50;98.70;;;;;;5117633;27;20487;-69
2023/05/16 15:28:00;;;;;;;8.32;1.80;;;13.50;99.00;;;;;;5117427;27;20047;-70
2023/05/16 15:30:26;;;;;;;9.02;2.25;;;13.50;99.10;;;;;;5135345;27;20050;-69
2023/05/16 15:32:51;;;;;;;8.30;2.00;;;13.30;99.50;;;;;;5117524;27;20422;-70
2023/05/16 15:35:17;;;;;;;7.97;1.60;;;13.40;99.50;;;;;;5135158;27;20047;-69